Time;durP1;ratioP1;P1;durP2;ratioP2;P2;SDS_P1;SDS_P2;PMS_P1;PMS_P2;Temp;Humidity;BMP_temperature;BMP_pressure;BME280_temperature;BME280_humidity;BME280_pressure;Samples;Min_cycle;Max_cycle;Signal;HPM_P1;HPM_P2
2023/01/02 00:00:56;;;;;;;2.80;1.83;;;;;;;16.34;75.22;100644.09;20463532;28;20059;-90
2023/01/02 00:10:58;;;;;;;3.17;1.60;;;;;;;16.28;75.33;100615.09;20383883;29;20583;-90
2023/01/02 00:21:03;;;;;;;2.38;1.60;;;;;;;16.35;75.37;100618.97;20407618;29;20047;-90
2023/01/02 00:31:10;;;;;;;2.40;1.52;;;;;;;16.36;75.38;100606.38;20459103;28;20051;-91
2023/01/02 00:41:11;;;;;;;2.05;1.50;;;;;;;16.36;75.59;100615.31;20458418;28;20058;-90
2023/01/02 00:51:13;;;;;;;3.08;1.90;;;;;;;16.29;75.68;100581.03;20443184;28;20047;-91
2023/01/02 01:01:15;;;;;;;3.72;2.03;;;;;;;16.28;75.65;100569.44;20457949;28;20078;-90
2023/01/02 01:11:17;;;;;;;2.67;1.77;;;;;;;16.35;75.74;100570.63;20475875;28;20055;-90
2023/01/02 01:21:19;;;;;;;2.08;1.80;;;;;;;16.36;75.80;100553.53;20457355;28;20241;-90
2023/01/02 01:31:21;;;;;;;2.75;1.92;;;;;;;16.25;75.46;100532.09;20456503;28;20051;-91
2023/01/02 01:41:24;;;;;;;3.70;2.30;;;;;;;16.29;76.06;100527.31;20456101;29;20109;-89
2023/01/02 01:51:27;;;;;;;3.03;1.67;;;;;;;16.36;75.88;100545.47;20473583;29;20047;-90
2023/01/02 02:01:28;;;;;;;3.03;1.95;;;;;;;16.37;76.17;100543.59;20455147;29;20051;-90
2023/01/02 02:11:30;;;;;;;2.28;1.65;;;;;;;16.27;76.23;100535.50;20471280;29;20047;-90
2023/01/02 02:21:55;;;;;;;2.22;1.88;;;;;;;16.36;76.17;100534.72;20469881;29;20051;-90
2023/01/02 02:32:08;;;;;;;4.50;2.30;;;;;;;16.36;76.15;100502.47;20436889;28;20070;-90
2023/01/02 02:42:27;;;;;;;2.90;1.63;;;;;;;16.37;76.28;100498.81;20448725;29;20055;-89
2023/01/02 02:52:35;;;;;;;3.55;1.80;;;;;;;16.37;76.48;100501.50;20449132;29;20059;-87
2023/01/02 03:02:37;;;;;;;2.33;1.80;;;;;;;16.37;76.35;100508.69;20447430;29;20052;-90
2023/01/02 03:12:48;;;;;;;3.03;1.75;;;;;;;16.29;76.31;100485.16;20448171;29;20130;-91
2023/01/02 03:22:52;;;;;;;1.98;1.77;;;;;;;16.37;76.52;100509.53;20333899;28;1052478;-90
2023/01/02 03:33:02;;;;;;;3.73;2.00;;;;;;;16.36;76.21;100513.22;20363799;29;20043;-90
2023/01/02 03:43:16;;;;;;;3.10;1.90;;;;;;;16.12;76.70;100457.13;20466006;29;20533;-90
2023/01/02 03:53:18;;;;;;;3.42;1.90;;;;;;;16.37;76.70;100501.50;20460430;28;20051;-90
2023/01/02 04:03:26;;;;;;;2.80;1.60;;;;;;;16.26;76.80;100469.34;20463763;29;20047;-91
2023/01/02 04:13:44;;;;;;;1.88;1.58;;;;;;;16.37;76.81;100482.69;20385459;29;20056;-90
2023/01/02 04:23:47;;;;;;;2.03;1.65;;;;;;;16.37;76.98;100477.31;20383465;29;20398;-90
2023/01/02 04:33:55;;;;;;;2.90;1.60;;;;;;;16.19;77.07;100450.25;20383931;29;20048;-90
2023/01/02 04:43:57;;;;;;;2.83;1.80;;;;;;;16.30;77.10;100462.69;20396209;29;20409;-90
2023/01/02 04:53:59;;;;;;;3.70;1.60;;;;;;;16.38;77.15;100467.41;20396966;29;20056;-89
2023/01/02 05:04:00;;;;;;;2.80;1.70;;;;;;;16.38;77.07;100472.78;20395587;29;20114;-90
2023/01/02 05:14:02;;;;;;;2.53;1.50;;;;;;;16.29;77.39;100463.69;20396804;29;20050;-90
2023/01/02 05:24:08;;;;;;;2.55;1.80;;;;;;;16.37;77.38;100471.06;20393027;29;20052;-90
2023/01/02 05:34:13;;;;;;;3.05;1.60;;;;;;;16.36;77.39;100486.34;20380358;29;20055;-90
2023/01/02 05:44:15;;;;;;;;;;;;;;;16.38;77.59;100495.13;20474315;29;20055;-90
2023/01/02 05:54:16;;;;;;;3.15;1.23;;;;;;;16.21;77.69;100471.56;20472994;29;19922;-91
2023/01/02 06:04:18;;;;;;;2.13;1.52;;;;;;;16.37;77.77;100490.75;20472042;29;20047;-90
2023/01/02 06:14:21;;;;;;;3.13;1.75;;;;;;;16.30;77.85;100476.13;20470590;28;20074;-90
2023/01/02 06:24:22;;;;;;;2.53;1.80;;;;;;;16.36;77.88;100502.47;20459644;29;20509;-90
2023/01/02 06:34:24;;;;;;;1.98;1.25;;;;;;;16.43;78.70;100496.56;20315994;29;20390;-84
2023/01/02 06:44:25;;;;;;;2.10;1.40;;;;;;;16.28;79.04;100451.25;20327695;29;20525;-86
2023/01/02 06:54:27;;;;;;;6.20;1.58;;;;;;;16.74;80.70;100496.47;20261381;29;20083;-96
2023/01/02 07:04:28;;;;;;;4.05;1.70;;;;;;;16.83;81.43;100514.47;21017399;23;20039;-95
2023/01/02 07:14:30;;;;;;;2.63;1.40;;;;;;;16.76;81.89;100499.88;20462084;28;20412;-94
2023/01/02 07:24:31;;;;;;;3.60;1.30;;;;;;;16.83;81.28;100560.19;20472562;28;20500;-94
2023/01/02 07:34:33;;;;;;;4.30;1.52;;;;;;;16.82;80.61;100599.66;20515938;28;20054;-89
2023/01/02 07:44:35;;;;;;;2.63;1.20;;;;;;;16.84;81.11;100645.22;20557076;28;20051;-85
2023/01/02 07:54:36;;;;;;;1.50;1.00;;;;;;;16.79;81.45;100668.94;20507508;28;20065;-87
2023/01/02 08:04:38;;;;;;;2.08;1.38;;;;;;;16.87;81.26;100701.41;20482983;28;20070;-95
2023/01/02 08:14:39;;;;;;;2.60;1.30;;;;;;;16.87;80.97;100752.50;20498564;28;20107;-96
2023/01/02 08:24:41;;;;;;;1.45;1.13;;;;;;;16.80;80.85;100770.16;20518992;28;20455;-96
2023/01/02 08:34:42;;;;;;;1.42;0.90;;;;;;;16.89;80.58;100824.94;20562362;28;20042;-96
2023/01/02 08:44:44;;;;;;;2.15;1.42;;;;;;;16.89;80.19;100855.41;20577750;28;20043;-96
2023/01/02 08:54:45;;;;;;;2.25;0.90;;;;;;;16.91;79.84;100891.06;20574661;28;20054;-96
2023/01/02 09:04:47;;;;;;;1.30;0.85;;;;;;;16.91;79.54;100931.41;20575650;28;20047;-95
2023/01/02 09:14:48;;;;;;;1.90;0.93;;;;;;;16.90;79.30;100953.91;20566969;28;20070;-92
2023/01/02 09:24:50;;;;;;;1.35;0.60;;;;;;;16.92;78.73;100986.03;20519219;28;20046;-92
2023/01/02 09:34:51;;;;;;;1.20;0.73;;;;;;;16.92;78.44;101003.03;20541926;28;20058;-88
2023/01/02 09:44:56;;;;;;;1.05;0.60;;;;;;;16.91;78.29;101012.09;20527393;28;21228;-93
2023/01/02 09:55:02;;;;;;;1.02;0.47;;;;;;;16.72;77.79;101017.25;20547332;28;20075;-94
2023/01/02 10:05:09;;;;;;;1.60;0.50;;;;;;;16.95;77.75;101074.53;20541449;28;20061;-94
2023/01/02 10:15:15;;;;;;;0.55;0.50;;;;;;;16.95;77.58;101088.84;20553157;28;20065;-95
2023/01/02 10:25:25;;;;;;;1.58;0.65;;;;;;;16.95;77.33;101096.91;20581992;28;20054;-96
2023/01/02 10:35:46;;;;;;;0.38;0.38;;;;;;;16.95;77.08;101110.34;20552476;28;20068;-94
2023/01/02 10:45:48;;;;;;;1.52;0.40;;;;;;;16.77;77.33;101069.69;20538430;28;20059;-88
2023/01/02 10:55:49;;;;;;;0.63;0.50;;;;;;;17.02;79.72;101099.13;20513680;28;20531;-92
2023/01/02 11:05:53;;;;;;;0.75;0.40;;;;;;;17.02;80.28;101102.69;20530381;28;20051;-94
2023/01/02 11:15:57;;;;;;;2.08;0.40;;;;;;;16.99;80.38;101110.13;20544610;28;20047;-92
2023/01/02 11:26:00;;;;;;;1.20;0.30;;;;;;;16.97;80.87;101118.28;20541068;28;20062;-94
2023/01/02 11:36:10;;;;;;;0.95;0.40;;;;;;;16.94;81.31;101132.84;20549387;28;20055;-95
2023/01/02 11:46:23;;;;;;;1.50;0.40;;;;;;;16.86;81.74;101131.75;20532337;28;20109;-94
2023/01/02 11:56:31;;;;;;;0.65;0.40;;;;;;;16.92;81.78;101159.00;20540332;28;20082;-88
2023/01/02 12:07:16;;;;;;;0.40;0.28;;;;;;;16.92;80.82;101174.28;20460332;28;20067;-91
2023/01/02 12:17:30;;;;;;;1.08;0.40;;;;;;;16.86;80.90;101180.16;20474184;28;20097;-89
2023/01/02 12:27:40;;;;;;;1.95;0.88;;;;;;;16.92;82.02;101209.25;20507775;28;20070;-89
2023/01/02 12:37:56;;;;;;;1.67;0.60;;;;;;;16.91;82.05;101203.03;20510352;28;20648;-85
2023/01/02 12:48:13;;;;;;;0.90;0.60;;;;;;;16.60;80.18;101165.13;20530003;28;20555;-89
2023/01/02 12:58:24;;;;;;;2.35;1.30;;;;;;;17.06;79.28;101218.94;20534090;28;20066;-88
2023/01/02 13:08:29;;;;;;;2.92;1.50;;;;;;;17.08;77.71;101211.59;20480153;28;20066;-87
2023/01/02 13:18:42;;;;;;;4.40;1.70;;;;;;;17.28;77.93;101233.38;20427934;28;20055;-85
2023/01/02 13:29:19;;;;;;;2.78;1.40;;;;;;;17.10;77.61;101201.56;20469532;28;20070;-87
2023/01/02 13:39:44;;;;;;;3.38;1.42;;;;;;;16.82;78.58;101174.19;20437149;28;20133;-89
2023/01/02 13:49:56;;;;;;;2.07;1.17;;;;;;;16.74;79.09;101198.97;20443139;28;20543;-83
2023/01/02 14:00:01;;;;;;;2.88;1.30;;;;;;;16.88;80.16;101258.88;20439240;28;20454;-84
2023/01/02 14:10:18;;;;;;;1.98;1.33;;;;;;;16.62;80.64;101238.44;20508464;28;20467;-88
2023/01/02 14:20:27;;;;;;;2.70;1.20;;;;;;;16.71;80.54;101273.63;20541701;28;20065;-88
2023/01/02 14:30:32;;;;;;;2.45;1.40;;;;;;;16.76;81.06;101287.56;20520289;28;20066;-90
2023/01/02 14:40:38;;;;;;;2.80;1.40;;;;;;;16.61;81.22;101279.72;20535562;28;20066;-91
2023/01/02 14:50:41;;;;;;;2.00;1.00;;;;;;;16.71;81.50;101295.13;20540919;28;20582;-90
2023/01/02 15:00:44;;;;;;;2.47;1.13;;;;;;;16.49;81.42;101283.38;20540861;28;20047;-92
2023/01/02 15:10:54;;;;;;;2.15;1.00;;;;;;;16.47;81.64;101288.00;20524251;28;20054;-87
2023/01/02 15:21:06;;;;;;;2.63;1.25;;;;;;;16.65;82.15;101334.97;20543012;23;20063;-95
2023/01/02 15:31:13;;;;;;;2.92;1.30;;;;;;;16.72;82.51;101393.63;20281793;29;20789;-94
2023/01/02 15:41:16;;;;;;;3.10;1.10;;;;;;;16.68;82.92;101396.56;20315334;29;20044;-89
2023/01/02 15:51:19;;;;;;;3.75;1.30;;;;;;;16.70;81.10;101400.97;20300464;29;20040;-89
2023/01/02 16:01:43;;;;;;;1.13;0.85;;;;;;;16.74;81.21;101413.19;20326291;29;20079;-96
2023/01/02 16:11:48;;;;;;;1.70;0.90;;;;;;;16.81;80.95;101430.63;20332484;29;20136;-91
2023/01/02 16:21:51;;;;;;;1.73;0.82;;;;;;;16.82;81.62;101448.47;20286080;29;20135;-92
2023/01/02 16:31:56;;;;;;;3.03;1.08;;;;;;;16.77;80.33;101472.13;20306198;28;20505;-88
2023/01/02 16:52:18;;;;;;;2.28;0.80;;;;;;;16.68;80.87;101504.09;20307467;29;19923;-90
2023/01/02 17:02:20;;;;;;;2.67;0.90;;;;;;;16.66;80.94;101516.81;20297593;29;20077;-90
2023/01/02 17:12:21;;;;;;;2.05;0.93;;;;;;;16.64;81.21;101523.28;20308380;28;20080;-88
2023/01/02 17:22:23;;;;;;;2.92;1.00;;;;;;;16.61;81.49;101545.84;20327043;28;20047;-91
2023/01/02 17:32:25;;;;;;;1.95;0.70;;;;;;;16.58;81.43;101548.78;20312505;28;20429;-89
2023/01/02 17:42:28;;;;;;;2.08;0.90;;;;;;;16.46;81.95;101544.28;20299459;29;20049;-89
2023/01/02 17:52:30;;;;;;;2.13;0.75;;;;;;;16.57;81.92;101590.06;20274783;29;20052;-89
2023/01/02 18:02:31;;;;;;;2.03;0.90;;;;;;;16.42;81.45;101580.44;20322096;29;20059;-90
2023/01/02 18:12:35;;;;;;;1.95;0.88;;;;;;;16.56;81.52;101619.72;20288632;29;20074;-91
2023/01/02 18:22:36;;;;;;;2.38;1.15;;;;;;;16.42;81.10;101609.97;20309670;29;20056;-88
2023/01/02 18:32:48;;;;;;;1.25;1.00;;;;;;;16.53;81.50;101645.00;20313314;29;20082;-89
2023/01/02 18:42:56;;;;;;;2.13;0.60;;;;;;;16.51;81.25;101666.63;20310731;29;20056;-88
2023/01/02 18:52:57;;;;;;;2.65;1.02;;;;;;;16.51;80.79;101679.22;20290968;29;20056;-93
2023/01/02 19:03:02;;;;;;;2.22;0.90;;;;;;;16.51;81.43;101708.78;20366676;29;20087;-90
2023/01/02 19:13:30;;;;;;;2.43;0.90;;;;;;;16.51;81.47;101716.84;20376694;28;20118;-92
2023/01/02 19:23:47;;;;;;;1.80;0.60;;;;;;;16.49;80.96;101732.22;20376942;28;20567;-91
2023/01/02 19:33:53;;;;;;;2.15;0.70;;;;;;;16.47;79.26;101750.28;20383199;28;20056;-91
2023/01/02 19:43:55;;;;;;;1.58;0.80;;;;;;;16.46;79.93;101770.06;20367592;28;20048;-91
2023/01/02 19:53:57;;;;;;;2.22;1.00;;;;;;;16.46;79.08;101786.19;20377211;28;20055;-91
2023/01/02 20:04:04;;;;;;;1.33;0.75;;;;;;;16.45;78.24;101806.81;20404424;28;20051;-92
2023/01/02 20:14:06;;;;;;;2.25;1.02;;;;;;;16.14;77.47;101765.03;20374203;28;20114;-91
2023/01/02 20:24:07;;;;;;;3.03;1.08;;;;;;;16.22;76.92;101811.94;20352711;28;20044;-90
2023/01/02 20:34:10;;;;;;;3.15;1.27;;;;;;;16.31;76.91;101825.69;20359633;28;20071;-91
2023/01/02 20:44:13;;;;;;;1.58;1.05;;;;;;;16.31;76.40;101858.78;20377311;28;20048;-91
2023/01/02 20:54:14;;;;;;;1.65;0.90;;;;;;;16.34;76.53;101863.13;20349349;29;20058;-92
2023/01/02 21:04:16;;;;;;;2.28;1.10;;;;;;;16.18;75.55;101852.53;20375442;29;20130;-92
2023/01/02 21:14:29;;;;;;;2.25;1.17;;;;;;;16.40;74.95;101896.78;20364017;28;20058;-90
2023/01/02 21:24:38;;;;;;;1.80;1.08;;;;;;;16.37;74.48;101916.66;20342934;29;20047;-91
2023/01/02 21:34:39;;;;;;;2.70;1.17;;;;;;;16.37;74.46;101917.53;20366653;29;20051;-91
2023/01/02 21:44:41;;;;;;;2.28;1.27;;;;;;;16.28;73.79;101922.66;20329681;29;20051;-91
2023/01/02 21:54:42;;;;;;;2.25;1.13;;;;;;;16.36;73.43;101948.06;20326677;29;20055;-91
2023/01/02 22:04:44;;;;;;;2.05;1.40;;;;;;;16.35;73.29;101962.47;20343468;29;20525;-92
2023/01/02 22:14:45;;;;;;;2.25;0.98;;;;;;;16.35;73.11;101973.22;20310883;29;20056;-91
2023/01/02 22:24:48;;;;;;;3.83;1.30;;;;;;;16.20;72.29;101952.69;20326766;29;20052;-90
2023/01/02 22:34:49;;;;;;;1.75;0.95;;;;;;;16.34;72.21;101995.66;20324337;29;20056;-90
2023/01/02 22:44:51;;;;;;;1.70;1.20;;;;;;;16.28;71.64;101998.72;20333856;29;20131;-92
2023/01/02 22:54:52;;;;;;;2.55;1.52;;;;;;;16.31;71.52;102017.34;20340009;29;20044;-90
2023/01/02 23:04:54;;;;;;;1.38;1.13;;;;;;;16.12;71.09;101993.47;20350129;29;20589;-92
2023/01/02 23:14:55;;;;;;;2.60;1.33;;;;;;;16.30;70.93;102034.44;20385732;28;20047;-90
2023/01/02 23:24:59;;;;;;;2.78;1.27;;;;;;;16.05;70.96;102014.50;20361084;28;20434;-92
2023/01/02 23:35:01;;;;;;;1.63;1.17;;;;;;;16.30;70.38;102071.19;20332616;29;20490;-92
2023/01/02 23:45:02;;;;;;;1.70;1.30;;;;;;;16.25;70.39;102084.91;20294348;29;20084;-92
2023/01/02 23:55:04;;;;;;;2.22;1.00;;;;;;;16.28;69.75;102098.16;20268202;29;20061;-92
